Time;durP1;ratioP1;P1;durP2;ratioP2;P2;SDS_P1;SDS_P2;PMS_P1;PMS_P2;Temp;Humidity;BMP_temperature;BMP_pressure;BME280_temperature;BME280_humidity;BME280_pressure;Samples;Min_cycle;Max_cycle;Signal;HPM_P1;HPM_P2
2023/11/01 00:00:27;0.00;0.00;0.62;0.00;0.00;0.62;4.07;3.67;;;23.90;30.30;;;;;;2253289;61;20363;-63
2023/11/01 00:03:13;0.00;0.00;0.62;0.00;0.00;0.62;4.33;3.90;;;24.00;30.40;;;;;;2253152;61;20405;-69
2023/11/01 00:05:58;0.00;0.00;0.62;0.00;0.00;0.62;5.20;4.33;;;24.00;30.40;;;;;;2252993;61;20374;-63
2023/11/01 00:08:43;0.00;0.00;0.62;0.00;0.00;0.62;5.67;5.07;;;24.00;30.40;;;;;;2252816;61;20987;-63
2023/11/01 00:11:27;0.00;0.00;0.62;0.00;0.00;0.62;4.37;3.90;;;23.90;30.30;;;;;;2253167;61;20511;-62
2023/11/01 00:14:13;0.00;0.00;0.62;0.00;0.00;0.62;5.37;4.23;;;23.90;30.30;;;;;;2253208;61;20522;-62
2023/11/01 00:16:57;0.00;0.00;0.62;0.00;0.00;0.62;5.30;3.50;;;23.90;30.30;;;;;;2253330;61;20371;-63
2023/11/01 00:19:42;0.00;0.00;0.62;0.00;0.00;0.62;4.77;4.27;;;23.90;30.30;;;;;;2252334;61;20903;-63
2023/11/01 00:22:27;0.00;0.00;0.62;0.00;0.00;0.62;5.40;4.50;;;23.90;30.30;;;;;;2253237;61;20359;-62
2023/11/01 00:25:11;0.00;0.00;0.62;0.00;0.00;0.62;4.50;3.90;;;23.90;30.30;;;;;;2252887;61;20478;-64
2023/11/01 00:27:56;0.00;0.00;0.62;0.00;0.00;0.62;5.33;4.43;;;23.90;30.30;;;;;;2252828;61;21089;-63
2023/11/01 00:30:42;0.00;0.00;0.62;0.00;0.00;0.62;4.53;3.93;;;23.90;30.30;;;;;;2253713;61;20374;-61
2023/11/01 00:33:27;0.00;0.00;0.62;0.00;0.00;0.62;5.13;3.57;;;23.90;30.30;;;;;;2253324;61;20425;-63
2023/11/01 00:36:12;0.00;0.00;0.62;0.00;0.00;0.62;4.17;3.70;;;23.90;30.30;;;;;;2250155;61;20402;-63
2023/11/01 00:38:57;0.00;0.00;0.62;0.00;0.00;0.62;4.00;3.53;;;23.90;30.30;;;;;;2252503;61;20361;-62
2023/11/01 00:41:41;0.00;0.00;0.62;0.00;0.00;0.62;4.50;3.37;;;23.90;30.30;;;;;;2250053;61;20900;-62
2023/11/01 00:44:26;0.00;0.00;0.62;0.00;0.00;0.62;4.60;3.77;;;23.90;30.30;;;;;;2253229;61;20915;-62
2023/11/01 00:47:12;0.00;0.00;0.62;0.00;0.00;0.62;4.90;3.77;;;23.90;30.30;;;;;;2252949;61;20776;-61
2023/11/01 00:49:57;0.00;0.00;0.62;0.00;0.00;0.62;4.03;3.27;;;23.90;30.30;;;;;;2252638;61;20810;-63
2023/11/01 00:52:41;0.00;0.00;0.62;0.00;0.00;0.62;4.43;3.40;;;23.90;30.30;;;;;;2252759;61;20390;-64
2023/11/01 00:55:26;0.00;0.00;0.62;0.00;0.00;0.62;4.23;3.47;;;23.90;30.30;;;;;;2252884;61;20362;-62
2023/11/01 00:58:10;0.00;0.00;0.62;0.00;0.00;0.62;3.33;2.83;;;23.90;30.30;;;;;;2249722;61;20371;-62
2023/11/01 01:00:55;0.00;0.00;0.62;0.00;0.00;0.62;4.00;3.33;;;23.90;30.30;;;;;;2252845;61;20410;-62
2023/11/01 01:03:41;0.00;0.00;0.62;0.00;0.00;0.62;3.40;3.10;;;23.90;30.30;;;;;;2252952;61;20381;-61
2023/11/01 01:06:25;0.00;0.00;0.62;0.00;0.00;0.62;4.90;4.00;;;23.90;30.30;;;;;;2253105;61;20414;-67
2023/11/01 01:09:12;0.00;0.00;0.62;0.00;0.00;0.62;4.83;4.03;;;23.90;30.30;;;;;;2252438;61;20395;-62
2023/11/01 01:11:56;0.00;0.00;0.62;0.00;0.00;0.62;3.40;3.10;;;23.90;30.30;;;;;;2252868;61;20398;-63
2023/11/01 01:14:41;0.00;0.00;0.62;0.00;0.00;0.62;5.07;3.60;;;23.90;30.30;;;;;;2253392;61;20970;-62
2023/11/01 01:17:25;0.00;0.00;0.62;0.00;0.00;0.62;4.57;3.43;;;23.90;30.30;;;;;;2250146;61;20386;-62
2023/11/01 01:20:11;0.00;0.00;0.62;0.00;0.00;0.62;3.60;3.30;;;23.90;30.30;;;;;;2252187;61;20375;-62
2023/11/01 01:22:56;0.00;0.00;0.62;0.00;0.00;0.62;4.37;3.77;;;23.90;30.30;;;;;;2250170;61;20375;-61
2023/11/01 01:25:41;0.00;0.00;0.62;0.00;0.00;0.62;3.97;3.43;;;23.90;30.30;;;;;;2253219;61;20370;-61
2023/11/01 01:28:25;0.00;0.00;0.62;0.00;0.00;0.62;4.37;3.40;;;23.90;30.30;;;;;;2249616;61;20486;-64
2023/11/01 01:31:10;0.00;0.00;0.62;0.00;0.00;0.62;4.80;4.03;;;23.90;30.30;;;;;;2253532;61;20389;-62
2023/11/01 01:33:54;0.00;0.00;0.62;0.00;0.00;0.62;4.17;3.50;;;23.90;30.30;;;;;;2253147;61;20437;-62
2023/11/01 01:36:40;0.00;0.00;0.62;0.00;0.00;0.62;5.00;4.07;;;23.90;30.30;;;;;;2252814;61;20359;-63
2023/11/01 01:39:25;0.00;0.00;0.62;0.00;0.00;0.62;6.30;4.30;;;23.90;30.30;;;;;;2253034;61;20852;-61
2023/11/01 01:42:10;0.00;0.00;0.62;0.00;0.00;0.62;6.30;5.00;;;23.90;30.30;;;;;;2252382;61;20418;-63
2023/11/01 01:44:54;0.00;0.00;0.62;0.00;0.00;0.62;6.00;4.30;;;23.90;30.30;;;;;;2253057;61;20394;-64
2023/11/01 01:47:39;0.00;0.00;0.62;0.00;0.00;0.62;5.17;4.13;;;23.90;30.30;;;;;;2253172;61;20417;-63
2023/11/01 01:50:24;0.00;0.00;0.62;0.00;0.00;0.62;5.23;4.67;;;23.80;30.20;;;;;;2250520;58;20674;-63
2023/11/01 01:53:10;0.00;0.00;0.62;0.00;0.00;0.62;4.07;3.67;;;23.90;30.40;;;;;;2252643;61;20366;-63
2023/11/01 01:55:54;0.00;0.00;0.62;0.00;0.00;0.62;4.57;3.67;;;23.80;30.20;;;;;;2252999;61;20397;-62
2023/11/01 01:58:41;0.00;0.00;0.62;0.00;0.00;0.62;4.87;4.20;;;23.90;30.30;;;;;;2252462;61;20829;-62
2023/11/01 02:01:28;0.00;0.00;0.62;0.00;0.00;0.62;5.53;4.50;;;23.90;30.30;;;;;;2250846;61;20409;-62
2023/11/01 02:04:13;0.00;0.00;0.62;0.00;0.00;0.62;5.70;4.70;;;23.80;30.20;;;;;;2253401;61;20533;-62
2023/11/01 02:06:58;0.00;0.00;0.62;0.00;0.00;0.62;5.63;4.53;;;23.90;30.30;;;;;;2250786;61;20910;-62
2023/11/01 02:09:45;0.00;0.00;0.62;0.00;0.00;0.62;6.40;4.97;;;23.90;30.30;;;;;;2253008;61;20366;-63
2023/11/01 02:12:30;0.00;0.00;0.62;0.00;0.00;0.62;5.00;4.23;;;23.80;30.30;;;;;;2253511;61;20430;-62
2023/11/01 02:15:15;0.00;0.00;0.62;0.00;0.00;0.62;5.47;4.80;;;23.80;30.30;;;;;;2253271;61;20796;-63
2023/11/01 02:18:00;0.00;0.00;0.62;0.00;0.00;0.62;4.97;4.30;;;23.90;30.40;;;;;;2249974;61;20366;-59
2023/11/01 02:20:47;0.00;0.00;0.62;0.00;0.00;0.62;5.03;4.40;;;23.80;30.90;;;;;;2253944;61;20834;-62
2023/11/01 02:23:34;0.00;0.00;0.62;0.00;0.00;0.62;6.03;4.63;;;23.80;30.30;;;;;;2253883;61;20475;-63
2023/11/01 02:26:19;0.00;0.00;0.62;0.00;0.00;0.62;5.70;4.47;;;23.80;30.30;;;;;;2253157;61;20422;-63
2023/11/01 02:29:05;0.00;0.00;0.62;0.00;0.00;0.62;5.13;4.30;;;23.80;30.30;;;;;;2528698;45;20825;-62
2023/11/01 02:31:50;0.00;0.00;0.62;0.00;0.00;0.62;5.63;4.90;;;23.80;30.30;;;;;;2253999;61;20389;-63
2023/11/01 02:34:36;0.00;0.00;0.62;0.00;0.00;0.62;5.40;4.90;;;23.80;30.30;;;;;;2253406;61;20429;-64
2023/11/01 02:37:21;0.00;0.00;0.62;0.00;0.00;0.62;6.10;4.80;;;23.80;30.30;;;;;;2253638;61;20455;-63
2023/11/01 02:40:09;0.00;0.00;0.62;0.00;0.00;0.62;6.03;5.00;;;23.80;30.30;;;;;;2253252;61;20502;-63
2023/11/01 02:42:57;0.00;0.00;0.62;0.00;0.00;0.62;5.30;4.53;;;23.90;30.40;;;;;;2253400;61;20421;-63
2023/11/01 02:45:41;0.00;0.00;0.62;0.00;0.00;0.62;5.20;4.30;;;23.80;30.30;;;;;;2252903;61;20370;-62
2023/11/01 02:48:26;0.00;0.00;0.62;0.00;0.00;0.62;5.70;4.90;;;23.90;30.40;;;;;;2253092;61;20370;-63
2023/11/01 02:51:11;0.00;0.00;0.62;0.00;0.00;0.62;5.97;4.97;;;23.90;30.40;;;;;;2253571;61;20398;-63
2023/11/01 02:53:56;0.00;0.00;0.62;0.00;0.00;0.62;4.90;3.93;;;23.90;30.40;;;;;;2250386;61;20385;-63
2023/11/01 02:56:42;0.00;0.00;0.62;0.00;0.00;0.62;6.40;4.93;;;23.90;30.40;;;;;;2253435;61;20421;-61
2023/11/01 02:59:27;0.00;0.00;0.62;0.00;0.00;0.62;6.50;5.37;;;23.80;30.30;;;;;;2249919;61;20906;-62
2023/11/01 03:02:12;0.00;0.00;0.62;0.00;0.00;0.62;6.30;4.87;;;23.90;30.30;;;;;;2253302;61;20455;-63
2023/11/01 03:04:56;0.00;0.00;0.62;0.00;0.00;0.62;4.83;4.27;;;23.90;30.30;;;;;;2253268;61;20386;-62
2023/11/01 03:07:41;0.00;0.00;0.62;0.00;0.00;0.62;5.20;4.00;;;23.90;30.30;;;;;;2253501;61;20502;-62
2023/11/01 03:10:26;0.00;0.00;0.62;0.00;0.00;0.62;6.60;4.40;;;23.90;30.30;;;;;;2253618;61;20443;-62
2023/11/01 03:13:12;0.00;0.00;0.62;0.00;0.00;0.62;6.80;5.10;;;23.90;30.30;;;;;;2253975;61;20533;-62
2023/11/01 03:15:57;0.00;0.00;0.62;0.00;0.00;0.62;5.00;4.30;;;23.90;30.30;;;;;;2254088;61;20378;-62
2023/11/01 03:18:44;0.00;0.00;0.62;0.00;0.00;0.62;5.87;4.20;;;23.90;30.30;;;;;;2253241;61;20422;-61
2023/11/01 03:21:28;0.00;0.00;0.62;0.00;0.00;0.62;6.20;4.57;;;23.90;30.90;;;;;;2254029;61;20367;-62
2023/11/01 03:24:13;0.00;0.00;0.62;0.00;0.00;0.62;4.83;4.20;;;23.90;30.20;;;;;;2253178;61;20410;-63
2023/11/01 03:26:58;0.00;0.00;0.62;0.00;0.00;0.62;6.20;4.50;;;23.90;30.20;;;;;;2253957;61;20955;-61
2023/11/01 03:29:44;0.00;0.00;0.62;0.00;0.00;0.62;4.43;4.00;;;23.90;30.20;;;;;;2252501;61;20413;-62
2023/11/01 03:32:28;0.00;0.00;0.62;0.00;0.00;0.62;5.43;4.30;;;23.90;30.10;;;;;;2253009;61;20424;-64
2023/11/01 03:35:14;0.00;0.00;0.62;0.00;0.00;0.62;5.50;4.50;;;23.90;30.20;;;;;;2253512;61;20379;-61
2023/11/01 03:37:59;0.00;0.00;0.62;0.00;0.00;0.62;4.90;4.20;;;23.90;30.20;;;;;;2252896;61;20371;-61
2023/11/01 03:40:43;0.00;0.00;0.62;0.00;0.00;0.62;4.50;3.83;;;23.90;30.10;;;;;;2253174;61;20390;-62
2023/11/01 03:43:28;0.00;0.00;0.62;0.00;0.00;0.62;8.63;4.50;;;23.90;30.10;;;;;;2253475;61;20437;-63
2023/11/01 03:46:14;0.00;0.00;0.62;0.00;0.00;0.62;5.47;4.10;;;23.90;30.10;;;;;;2253582;61;20991;-63
2023/11/01 03:48:59;0.00;0.00;0.62;0.00;0.00;0.62;4.70;4.00;;;23.90;30.10;;;;;;2253531;61;20466;-63
2023/11/01 03:51:44;0.00;0.00;0.62;0.00;0.00;0.62;5.50;3.83;;;23.90;30.10;;;;;;2253760;61;20818;-63
2023/11/01 03:54:29;0.00;0.00;0.62;0.00;0.00;0.62;4.27;3.37;;;23.90;30.10;;;;;;2253394;61;20437;-63
2023/11/01 03:57:14;0.00;0.00;0.62;0.00;0.00;0.62;5.23;3.67;;;23.90;30.10;;;;;;2253592;61;20366;-63
2023/11/01 03:59:59;0.00;0.00;0.62;0.00;0.00;0.62;4.70;3.73;;;23.90;30.10;;;;;;2253141;61;20362;-62
2023/11/01 04:02:44;0.00;0.00;0.62;0.00;0.00;0.62;4.20;3.20;;;23.90;30.10;;;;;;2253253;61;20441;-63
2023/11/01 04:05:29;0.00;0.00;0.62;0.00;0.00;0.62;4.80;4.03;;;23.90;30.10;;;;;;2253580;61;20375;-63
2023/11/01 04:08:14;0.00;0.00;0.62;0.00;0.00;0.62;5.20;3.87;;;23.90;30.10;;;;;;2252960;61;20375;-63
2023/11/01 04:10:58;0.00;0.00;0.62;0.00;0.00;0.62;4.77;3.23;;;23.90;30.10;;;;;;2252895;61;20371;-63
2023/11/01 04:13:43;0.00;0.00;0.62;0.00;0.00;0.62;4.13;3.37;;;23.90;30.10;;;;;;2253332;61;20438;-62
2023/11/01 04:16:28;0.00;0.00;0.62;0.00;0.00;0.62;5.00;3.80;;;23.90;30.20;;;;;;2253129;61;20446;-62
2023/11/01 04:19:16;0.00;0.00;0.62;0.00;0.00;0.62;4.03;3.10;;;23.90;30.10;;;;;;2253180;61;20390;-62
2023/11/01 04:22:00;0.00;0.00;0.62;0.00;0.00;0.62;3.90;3.17;;;23.90;30.20;;;;;;2253281;61;20767;-63
2023/11/01 04:24:45;0.00;0.00;0.62;0.00;0.00;0.62;5.30;4.00;;;23.90;30.10;;;;;;2253247;61;20382;-63
2023/11/01 04:27:29;0.00;0.00;0.62;0.00;0.00;0.62;4.10;3.30;;;23.80;30.00;;;;;;2253406;61;20413;-62
2023/11/01 04:30:14;0.00;0.00;0.62;0.00;0.00;0.62;4.77;3.77;;;23.90;30.20;;;;;;2253286;61;20409;-64
2023/11/01 04:32:59;0.00;0.00;0.62;0.00;0.00;0.62;4.80;3.67;;;23.90;30.20;;;;;;2253316;61;20394;-63
2023/11/01 04:35:45;0.00;0.00;0.62;0.00;0.00;0.62;4.40;3.40;;;23.80;30.10;;;;;;2253177;61;20942;-63
2023/11/01 04:38:30;0.00;0.00;0.62;0.00;0.00;0.62;3.73;3.23;;;23.80;30.10;;;;;;2252607;61;20370;-63
2023/11/01 04:41:15;0.00;0.00;0.62;0.00;0.00;0.62;5.23;4.00;;;23.90;30.20;;;;;;2253487;61;20378;-62
2023/11/01 04:43:59;0.00;0.00;0.62;0.00;0.00;0.62;4.53;3.50;;;23.90;30.20;;;;;;2253482;61;20386;-63
2023/11/01 04:46:44;0.00;0.00;0.62;0.00;0.00;0.62;4.47;3.23;;;23.80;30.10;;;;;;2253291;61;20382;-63
2023/11/01 04:49:29;0.00;0.00;0.62;0.00;0.00;0.62;4.47;3.87;;;23.80;30.10;;;;;;2253353;61;20378;-62
2023/11/01 04:52:14;0.00;0.00;0.62;0.00;0.00;0.62;3.90;3.47;;;23.80;30.10;;;;;;2253578;61;20489;-63
2023/11/01 04:54:59;0.00;0.00;0.62;0.00;0.00;0.62;4.37;3.37;;;23.80;30.10;;;;;;2253081;61;21069;-63
2023/11/01 04:57:44;0.00;0.00;0.62;0.00;0.00;0.62;4.97;3.97;;;23.80;30.20;;;;;;2253708;61;20367;-64
2023/11/01 05:00:28;0.00;0.00;0.62;0.00;0.00;0.62;4.47;3.90;;;23.80;30.20;;;;;;2253296;61;20502;-64
2023/11/01 05:03:13;0.00;0.00;0.62;0.00;0.00;0.62;4.30;3.30;;;23.80;30.10;;;;;;2253511;61;20443;-63
2023/11/01 05:05:58;0.00;0.00;0.62;0.00;0.00;0.62;4.43;3.10;;;23.80;30.10;;;;;;2252762;61;20729;-62
2023/11/01 05:08:44;0.00;0.00;0.62;0.00;0.00;0.62;4.60;3.83;;;23.80;30.10;;;;;;2252913;61;20409;-63
2023/11/01 05:11:29;0.00;0.00;0.62;0.00;0.00;0.62;4.53;4.00;;;23.80;30.10;;;;;;2253664;61;20422;-60
2023/11/01 05:14:14;0.00;0.00;0.62;0.00;0.00;0.62;5.33;3.90;;;23.80;30.20;;;;;;2253301;61;20394;-62
2023/11/01 05:16:58;0.00;0.00;0.62;0.00;0.00;0.62;4.80;3.83;;;23.80;30.20;;;;;;2253349;61;20374;-61
2023/11/01 05:19:43;0.00;0.00;0.62;0.00;0.00;0.62;4.83;3.67;;;23.80;30.20;;;;;;2252366;61;20363;-62
2023/11/01 05:22:28;0.00;0.00;0.62;0.00;0.00;0.62;5.90;4.70;;;23.80;30.20;;;;;;2253292;61;20362;-62
2023/11/01 05:25:14;0.00;0.00;0.62;0.00;0.00;0.62;4.80;4.23;;;23.80;30.20;;;;;;2253333;61;20465;-61
2023/11/01 05:27:58;0.00;0.00;0.62;0.00;0.00;0.62;6.33;4.97;;;23.80;30.20;;;;;;2253206;61;20378;-62
2023/11/01 05:30:45;0.00;0.00;0.62;0.00;0.00;0.62;5.73;4.40;;;23.80;30.90;;;;;;2253261;61;20390;-62
2023/11/01 05:33:31;0.00;0.00;0.62;0.00;0.00;0.62;6.13;4.80;;;23.80;30.20;;;;;;2253033;61;20382;-63
2023/11/01 05:36:15;0.00;0.00;0.62;0.00;0.00;0.62;4.70;3.97;;;23.80;30.20;;;;;;2253196;61;20865;-62
2023/11/01 05:39:05;0.00;0.00;0.62;0.00;0.00;0.62;5.93;4.73;;;23.80;30.20;;;;;;2252509;61;20374;-63
2023/11/01 05:41:51;0.00;0.00;0.62;0.00;0.00;0.62;5.30;4.20;;;23.80;30.30;;;;;;2252939;61;20491;-63
2023/11/01 05:44:36;0.00;0.00;0.62;0.00;0.00;0.62;6.00;4.50;;;23.70;30.20;;;;;;2252759;61;20395;-63
2023/11/01 05:47:20;0.00;0.00;0.62;0.00;0.00;0.62;6.53;4.90;;;23.80;30.30;;;;;;2253089;61;20418;-63
2023/11/01 05:50:07;0.00;0.00;0.62;0.00;0.00;0.62;5.30;4.50;;;23.80;30.30;;;;;;2252741;61;20366;-62
2023/11/01 05:52:53;0.00;0.00;0.62;0.00;0.00;0.62;4.90;4.13;;;23.70;30.20;;;;;;2252949;61;20435;-63
2023/11/01 05:55:38;0.00;0.00;0.62;0.00;0.00;0.62;7.10;5.10;;;23.70;30.20;;;;;;2253104;61;20879;-62
2023/11/01 05:58:24;0.00;0.00;0.62;0.00;0.00;0.62;6.30;4.87;;;23.70;30.20;;;;;;2252896;61;20949;-63
2023/11/01 06:01:08;0.00;0.00;0.62;0.00;0.00;0.62;6.40;5.43;;;23.70;30.20;;;;;;2253284;61;20925;-62
2023/11/01 06:03:56;0.00;0.00;0.62;0.00;0.00;0.62;6.37;5.43;;;23.70;30.20;;;;;;2253287;61;20387;-62
2023/11/01 06:06:40;0.00;0.00;0.62;0.00;0.00;0.62;5.60;4.50;;;23.70;30.20;;;;;;2253245;61;20363;-63
2023/11/01 06:09:25;0.00;0.00;0.62;0.00;0.00;0.62;7.33;5.00;;;23.70;30.20;;;;;;2252799;61;20359;-63
2023/11/01 06:12:09;0.00;0.00;0.62;0.00;0.00;0.62;6.90;5.10;;;23.70;30.20;;;;;;2253212;61;20409;-63
2023/11/01 06:14:56;0.00;0.00;0.62;0.00;0.00;0.62;6.40;5.33;;;23.70;30.20;;;;;;2252942;61;20390;-60
2023/11/01 06:17:40;0.00;0.00;0.62;0.00;0.00;0.62;5.70;5.03;;;23.70;30.30;;;;;;2253476;61;20394;-63
2023/11/01 06:20:25;0.00;0.00;0.62;0.00;0.00;0.62;6.60;5.00;;;23.70;30.20;;;;;;2253436;61;20984;-64
2023/11/01 06:23:10;0.00;0.00;0.62;0.00;0.00;0.62;6.57;4.90;;;23.70;30.30;;;;;;2253062;61;20367;-61
2023/11/01 06:25:54;0.00;0.00;0.62;0.00;0.00;0.62;6.00;4.60;;;23.70;30.30;;;;;;2253474;61;20421;-62
2023/11/01 06:28:39;0.00;0.00;0.62;0.00;0.00;0.62;6.20;4.93;;;23.70;30.20;;;;;;2253033;61;20895;-62
2023/11/01 06:31:24;0.00;0.00;0.62;0.00;0.00;0.62;8.67;5.00;;;23.70;30.30;;;;;;2252768;61;20414;-67
2023/11/01 06:34:09;0.00;0.00;0.62;0.00;0.00;0.62;6.90;5.40;;;23.70;30.30;;;;;;2253317;61;20513;-64
2023/11/01 06:36:53;0.00;0.00;0.62;0.00;0.00;0.62;6.43;5.10;;;23.70;30.30;;;;;;2252882;61;20363;-63
2023/11/01 06:39:38;0.00;0.00;0.62;0.00;0.00;0.62;7.00;5.30;;;23.70;30.30;;;;;;2252539;61;20417;-63
2023/11/01 06:42:23;0.00;0.00;0.62;0.00;0.00;0.62;6.23;4.97;;;23.70;30.30;;;;;;2253384;61;20409;-61
2023/11/01 06:45:10;0.00;0.00;0.62;0.00;0.00;0.62;7.60;5.53;;;23.70;30.30;;;;;;2253212;61;20429;-63
2023/11/01 06:47:56;0.00;0.00;0.62;0.00;0.00;0.62;5.93;4.63;;;23.70;30.30;;;;;;2253629;61;20382;-61
2023/11/01 06:50:41;0.00;0.00;0.62;0.00;0.00;0.62;6.17;5.10;;;23.70;30.30;;;;;;2253999;61;20833;-63
2023/11/01 06:53:25;0.00;0.00;0.62;0.00;0.00;0.62;6.00;4.70;;;23.70;30.30;;;;;;2253363;61;20798;-63
2023/11/01 06:56:11;0.00;0.00;0.62;0.00;0.00;0.62;5.73;4.87;;;23.70;30.30;;;;;;2253272;61;20509;-62
2023/11/01 06:58:55;0.00;0.00;0.62;0.00;0.00;0.62;7.03;4.40;;;23.70;30.30;;;;;;2253401;61;20394;-63
2023/11/01 07:01:41;0.00;0.00;0.62;0.00;0.00;0.62;6.17;4.83;;;23.70;30.30;;;;;;2253550;61;20367;-63
2023/11/01 07:04:28;0.00;0.00;0.62;0.00;0.00;0.62;5.97;4.93;;;23.70;30.30;;;;;;2253610;61;20533;-63
2023/11/01 07:07:13;0.00;0.00;0.62;0.00;0.00;0.62;5.70;5.10;;;23.70;30.30;;;;;;2253309;61;20375;-63
2023/11/01 07:09:58;0.00;0.00;0.62;0.00;0.00;0.62;6.20;4.33;;;23.70;30.30;;;;;;2253457;61;20956;-65
2023/11/01 07:12:42;0.00;0.00;0.62;0.00;0.00;0.62;5.87;5.00;;;23.70;30.30;;;;;;2253380;61;20394;-62
2023/11/01 07:15:28;0.00;0.00;0.62;0.00;0.00;0.62;5.30;4.53;;;23.70;30.30;;;;;;2253638;61;20402;-62
2023/11/01 07:18:13;0.00;0.00;0.62;0.00;0.00;0.62;5.03;4.53;;;23.70;30.30;;;;;;2253550;61;20472;-63
2023/11/01 07:20:58;0.00;0.00;0.62;0.00;0.00;0.62;5.27;4.23;;;23.70;30.30;;;;;;2253819;61;20371;-63
2023/11/01 07:23:43;0.00;0.00;0.62;0.00;0.00;0.62;5.70;4.90;;;23.70;30.40;;;;;;2254024;61;20394;-65
2023/11/01 07:26:28;0.00;0.00;0.62;0.00;0.00;0.62;5.10;4.47;;;23.70;30.30;;;;;;2254004;61;20454;-63
2023/11/01 07:29:13;0.00;0.00;0.62;0.00;0.00;0.62;6.47;4.70;;;23.70;30.30;;;;;;2253245;61;20899;-61
2023/11/01 07:31:57;0.00;0.00;0.62;0.00;0.00;0.62;7.20;5.53;;;23.70;30.30;;;;;;2253450;61;20386;-63
2023/11/01 07:34:42;0.00;0.00;0.62;0.00;0.00;0.62;4.90;3.90;;;23.70;30.30;;;;;;2253904;61;20386;-64
2023/11/01 07:37:28;0.00;0.00;0.62;0.00;0.00;0.62;5.50;4.37;;;23.70;30.40;;;;;;2253471;61;20450;-62
2023/11/01 07:40:13;0.00;0.00;0.62;0.00;0.00;0.62;7.03;5.13;;;23.70;30.40;;;;;;2253568;61;20514;-64
2023/11/01 07:42:58;0.00;0.00;0.62;0.00;0.00;0.62;6.50;4.53;;;23.70;30.40;;;;;;2253343;61;20383;-63
2023/11/01 07:45:42;0.00;0.00;0.62;0.00;0.00;0.62;4.97;4.43;;;23.70;31.00;;;;;;2253684;61;20808;-63
2023/11/01 07:48:27;0.00;0.00;0.62;0.00;0.00;0.62;4.80;4.17;;;23.70;30.40;;;;;;2252954;61;20421;-64
2023/11/01 07:51:11;0.00;0.00;0.62;0.00;0.00;0.62;5.30;4.03;;;23.70;30.40;;;;;;2253295;61;20378;-63
2023/11/01 07:53:57;0.00;0.00;0.62;0.00;0.00;0.62;4.47;3.97;;;23.70;30.40;;;;;;2253597;61;20387;-63
2023/11/01 07:56:42;0.00;0.00;0.62;0.00;0.00;0.62;5.17;4.27;;;23.70;30.40;;;;;;2253401;61;20371;-63
2023/11/01 07:59:27;0.00;0.00;0.62;0.00;0.00;0.62;5.50;4.37;;;23.70;30.40;;;;;;2253014;61;20898;-63
2023/11/01 08:02:12;0.00;0.00;0.62;0.00;0.00;0.62;5.57;4.50;;;23.70;30.40;;;;;;2253974;61;20366;-68
2023/11/01 08:04:56;0.00;0.00;0.62;0.00;0.00;0.62;4.83;3.67;;;23.70;30.40;;;;;;2253300;61;20514;-62
2023/11/01 08:07:41;0.00;0.00;0.62;0.00;0.00;0.62;5.17;4.23;;;23.70;30.40;;;;;;2253945;61;20366;-64
2023/11/01 08:10:27;0.00;0.00;0.62;0.00;0.00;0.62;5.90;3.93;;;23.70;31.10;;;;;;2253481;61;20378;-64
2023/11/01 08:13:11;0.00;0.00;0.62;0.00;0.00;0.62;4.60;4.10;;;23.70;30.40;;;;;;2250083;61;20866;-64
2023/11/01 08:15:56;0.00;0.00;0.62;0.00;0.00;0.62;4.60;3.60;;;23.70;30.40;;;;;;2253583;61;20851;-63
2023/11/01 08:18:40;0.00;0.00;0.62;0.00;0.00;0.62;5.40;3.90;;;23.70;30.40;;;;;;2253463;61;20363;-63
2023/11/01 08:21:25;0.00;0.00;0.62;0.00;0.00;0.62;5.87;4.50;;;23.60;31.00;;;;;;2253325;61;20818;-63
2023/11/01 08:24:09;0.00;0.00;0.62;0.00;0.00;0.62;5.30;4.00;;;23.70;30.40;;;;;;2253920;61;20386;-62
2023/11/01 08:26:57;0.00;0.00;0.62;0.00;0.00;0.62;4.30;3.50;;;23.70;30.40;;;;;;2253497;61;20382;-62
2023/11/01 08:29:42;0.00;0.00;0.62;0.00;0.00;0.62;4.43;4.03;;;23.70;30.40;;;;;;2253137;61;20366;-62
2023/11/01 08:32:27;0.00;0.00;0.62;0.00;0.00;0.62;3.80;3.40;;;23.70;30.40;;;;;;2253644;61;20398;-63
2023/11/01 08:35:11;0.00;0.00;0.62;0.00;0.00;0.62;4.73;3.60;;;23.70;30.40;;;;;;2250060;61;20465;-64
2023/11/01 08:37:56;0.00;0.00;0.62;0.00;0.00;0.62;4.87;3.87;;;23.70;30.40;;;;;;2253382;61;20369;-63
2023/11/01 08:40:40;0.00;0.00;0.62;0.00;0.00;0.62;4.87;4.23;;;23.70;30.40;;;;;;2253151;61;20402;-61
2023/11/01 08:43:26;0.00;0.00;0.62;0.00;0.00;0.62;4.30;3.50;;;23.70;30.40;;;;;;2250403;61;21034;-62
2023/11/01 08:46:12;0.00;0.00;0.62;0.00;0.00;0.62;5.33;4.77;;;23.70;30.40;;;;;;2253412;61;20422;-65
2023/11/01 08:48:57;0.00;0.00;0.62;0.00;0.00;0.62;5.40;4.20;;;23.70;30.40;;;;;;2253242;61;20430;-61
2023/11/01 08:51:41;0.00;0.00;0.62;0.00;0.00;0.62;5.17;3.83;;;23.70;30.40;;;;;;2253745;61;20386;-61
2023/11/01 08:54:26;0.00;0.00;0.62;0.00;0.00;0.62;3.93;3.47;;;23.70;30.40;;;;;;2253585;61;20786;-63
2023/11/01 08:57:11;0.00;0.00;0.62;0.00;0.00;0.62;4.80;3.77;;;23.70;30.40;;;;;;2253182;61;20840;-63
2023/11/01 08:59:57;0.00;0.00;0.62;0.00;0.00;0.62;5.60;3.83;;;23.60;30.40;;;;;;2253385;61;20363;-63
2023/11/01 09:02:42;0.00;0.00;0.62;0.00;0.00;0.62;4.10;3.57;;;23.70;30.40;;;;;;2253669;61;20436;-64
2023/11/01 09:05:27;0.00;0.00;0.62;0.00;0.00;0.62;4.60;3.80;;;23.70;30.40;;;;;;2253513;61;20382;-62
2023/11/01 09:08:11;0.00;0.00;0.62;0.00;0.00;0.62;5.23;4.30;;;23.70;30.40;;;;;;2253169;61;20370;-61
2023/11/01 09:10:57;0.00;0.00;0.62;0.00;0.00;0.62;5.17;4.20;;;23.60;31.00;;;;;;2253869;61;20747;-62
2023/11/01 09:13:43;0.00;0.00;0.62;0.00;0.00;0.62;4.77;4.13;;;23.60;30.40;;;;;;2253419;61;20398;-63
2023/11/01 09:16:30;0.00;0.00;0.62;0.00;0.00;0.62;6.60;4.80;;;23.60;30.40;;;;;;2253590;61;20418;-62
2023/11/01 09:19:14;0.00;0.00;0.62;0.00;0.00;0.62;5.83;4.10;;;23.70;30.40;;;;;;2253106;61;20375;-63
2023/11/01 09:22:00;0.00;0.00;0.62;0.00;0.00;0.62;5.03;4.13;;;23.70;30.40;;;;;;2253958;61;20386;-62
2023/11/01 09:24:45;0.00;0.00;0.62;0.00;0.00;0.62;6.10;4.80;;;23.70;30.40;;;;;;2253750;61;20394;-62
2023/11/01 09:27:29;0.00;0.00;0.62;0.00;0.00;0.62;4.70;4.17;;;23.60;30.40;;;;;;2253230;61;20406;-63
2023/11/01 09:30:14;0.00;0.00;0.62;0.00;0.00;0.62;4.67;4.00;;;23.70;31.20;;;;;;2253676;61;20363;-63
2023/11/01 09:33:00;0.00;0.00;0.62;0.00;0.00;0.62;5.40;4.20;;;23.70;30.50;;;;;;2253407;61;21028;-63
2023/11/01 09:35:45;0.00;0.00;0.62;0.00;0.00;0.62;5.90;4.50;;;23.70;30.50;;;;;;2252906;61;20371;-65
2023/11/01 09:38:29;0.00;0.00;0.62;0.00;0.00;0.62;5.43;4.37;;;23.70;30.50;;;;;;2252644;61;20430;-62
2023/11/01 09:41:17;0.00;0.00;0.62;0.00;0.00;0.62;6.17;5.10;;;23.70;30.50;;;;;;2253061;61;20413;-62
2023/11/01 09:44:03;0.00;0.00;0.62;0.00;0.00;0.62;6.20;4.77;;;23.70;30.50;;;;;;2252853;61;20850;-62
2023/11/01 09:46:49;0.00;0.00;0.62;0.00;0.00;0.62;4.80;4.30;;;23.70;30.50;;;;;;2250069;61;20366;-62
2023/11/01 09:49:36;0.00;0.00;0.62;0.00;0.00;0.62;5.20;4.27;;;23.70;30.50;;;;;;2252275;61;20366;-62
2023/11/01 09:52:21;0.00;0.00;0.62;0.00;0.00;0.62;6.77;5.40;;;23.70;30.50;;;;;;2253107;61;20399;-60
2023/11/01 09:55:07;0.00;0.00;0.62;0.00;0.00;0.62;7.83;5.23;;;23.70;30.50;;;;;;2252956;61;20814;-62
2023/11/01 09:57:52;0.00;0.00;0.62;0.00;0.00;0.62;6.10;4.90;;;23.70;30.50;;;;;;2252538;61;20900;-62
2023/11/01 10:00:37;0.00;0.00;0.62;0.00;0.00;0.62;6.67;5.10;;;23.70;31.20;;;;;;2253562;61;20794;-61
2023/11/01 10:03:22;0.00;0.00;0.62;0.00;0.00;0.62;6.47;5.27;;;23.70;30.50;;;;;;2252689;61;20410;-62
2023/11/01 10:06:08;0.00;0.00;0.62;0.00;0.00;0.62;7.07;5.50;;;23.70;30.50;;;;;;2253155;61;20429;-61
2023/11/01 10:08:53;0.00;0.00;0.62;0.00;0.00;0.62;7.00;5.43;;;23.70;30.50;;;;;;2252735;61;20374;-61
2023/11/01 10:11:38;0.00;0.00;0.62;0.00;0.00;0.62;8.70;5.57;;;23.70;30.50;;;;;;2253142;61;20366;-62
2023/11/01 10:14:28;0.00;0.00;0.62;0.00;0.00;0.62;6.77;5.53;;;23.70;30.50;;;;;;2252908;61;20385;-63
2023/11/01 10:17:12;0.00;0.00;0.62;0.00;0.00;0.62;8.30;6.40;;;23.70;30.50;;;;;;2252232;61;20397;-58
2023/11/01 10:19:57;0.00;0.00;0.62;0.00;0.00;0.62;8.77;6.33;;;23.70;30.50;;;;;;2252193;61;20374;-60
2023/11/01 10:22:43;0.00;0.00;0.62;0.00;0.00;0.62;6.47;5.73;;;23.70;30.70;;;;;;2253012;61;20362;-59
2023/11/01 10:25:28;0.00;0.00;0.62;0.00;0.00;0.62;6.67;5.77;;;23.70;30.70;;;;;;2253336;61;20374;-64
2023/11/01 10:28:13;0.00;0.00;0.62;0.00;0.00;0.62;7.37;5.40;;;23.70;30.80;;;;;;2254560;61;20358;-63
2023/11/01 10:30:58;0.00;0.00;0.62;0.00;0.00;0.62;5.83;5.10;;;23.70;30.80;;;;;;2254386;61;20368;-63
2023/11/01 10:33:43;0.00;0.00;0.62;0.00;0.00;0.62;7.07;5.87;;;23.70;30.80;;;;;;2253728;61;20398;-63
2023/11/01 10:36:27;0.00;0.00;0.62;0.00;0.00;0.62;6.57;5.07;;;23.70;30.80;;;;;;2254151;61;20370;-63
2023/11/01 10:39:14;0.00;0.00;0.62;0.00;0.00;0.62;6.50;5.50;;;23.70;30.80;;;;;;2253542;61;20431;-61
2023/11/01 10:41:58;0.00;0.00;0.62;0.00;0.00;0.62;6.93;5.40;;;23.70;30.80;;;;;;2253201;61;20370;-60
2023/11/01 10:44:43;0.00;0.00;0.62;0.00;0.00;0.62;6.73;5.17;;;23.70;30.90;;;;;;2253056;61;20410;-59
2023/11/01 10:47:28;0.00;0.00;0.62;0.00;0.00;0.62;7.70;5.60;;;23.70;30.90;;;;;;2252728;61;20835;-60
2023/11/01 10:50:13;0.00;0.00;0.62;0.00;0.00;0.62;6.43;5.20;;;23.70;30.90;;;;;;2253251;61;20367;-59